Latest Coastal Weather Observations for Sunshine Coast Airport

IDQ60701

Issued at 12:32 pm EST Wednesday 21 April 2021 (issued every 10 minutes, with the page automatically refreshed every 10 minutes)

About coastal observations | Map of coastal stations | Coastal observations for QLD | Marine services | Other Formats
Station Details ID: 040861 Name: SUNSHINE COAST AIRPORT Lat: -26.60 Lon: 153.09 Height: 3.42 m
Data from the previous 72 hours. | See also: Recent months at Sunshine Coast Airport
Date/Time
EST
Wind Sea
Height
m
Swell Vis
km
Cloud Weather Temp
°C
Press
MSL
hPa
Rain since
9am
mm
Dir  Spd
kts
Gust
kts
Height
m
Period
s
Dir
21/12:30pm NNW 9 12 - - - - 10 Clear - 28.8 1011.8 0.0
21/12:00pm WNW 13 17 - - - - 10 - - 28.3 1012.5 0.0
21/11:30am WNW 14 19 - - - - 10 - - 27.7 1013.1 0.0
21/11:00am WNW 11 15 - - - - 10 - - 27.1 1013.8 0.0
21/10:30am NW 13 18 - - - - 10 - - 26.2 1014.3 0.0
21/10:00am WNW 14 19 - - - - 10 - - 25.2 1014.7 0.0
21/09:30am NW 15 19 - - - - 10 - - 24.8 1015.0 0.0
21/09:00am NW 12 16 - - - - 10 - - 23.7 1015.2 0.0
21/08:30am NW 11 16 - - - - 10 - - 22.7 1015.2 0.0
21/08:00am NW 11 15 - - - - 10 - - 21.4 1015.0 0.0
21/07:30am NNW 3 5 - - - - 10 - - 20.1 1015.0 0.0
21/07:00am N 3 6 - - - - 10 - - 18.6 1014.9 0.0
21/06:30am NNW 4 5 - - - - 10 - - 16.9 1014.7 0.0
21/06:00am N 1 3 - - - - 10 - - 16.9 1014.5 0.0
21/05:30am NNW 10 13 - - - - 10 - - 17.8 1014.3 0.0
21/05:00am NNW 11 12 - - - - 10 - - 17.0 1014.4 0.0
21/04:30am NW 8 9 - - - - 10 - - 16.4 1014.3 0.0
21/04:00am NNW 8 10 - - - - 10 - - 17.7 1014.0 0.0
21/03:30am NNW 10 11 - - - - 10 - - 18.1 1014.0 0.0
21/03:00am NW 9 10 - - - - 10 Partly cloudy - 16.5 1014.0 0.0
21/02:30am NW 5 6 - - - - 10 - - 17.1 1014.2 0.0
21/02:00am NW 6 7 - - - - 10 - - 17.2 1014.4 0.0
21/01:30am WNW 5 7 - - - - 10 - - 17.7 1014.7 0.0
21/01:00am NW 5 5 - - - - 10 - - 17.8 1014.8 0.0
21/12:30am NW 5 7 - - - - 10 - - 17.5 1015.3 0.0
21/12:00am NW 6 7 - - - - 10 Cloudy - 17.4 1015.5 0.0
 
Date/Time
EST
Wind Sea
Height
m
Swell Vis
km
Cloud Weather Temp
°C
Press
MSL
hPa
Rain since
9am
mm
Dir  Spd
kts
Gust
kts
Height
m
Period
s
Dir
20/11:30pm NW 4 5 - - - - 10 - - 17.6 1015.7 0.0
20/11:00pm NW 5 5 - - - - 10 - - 17.1 1015.8 0.0
20/10:30pm NW 6 8 - - - - 10 - - 16.8 1016.1 0.0
20/10:00pm NNW 6 7 - - - - 10 - - 16.6 1016.1 0.0
20/09:30pm NW 7 8 - - - - 10 - - 16.6 1016.5 0.0
20/09:00pm NW 7 7 - - - - 10 - - 16.8 1016.3 0.0
20/08:30pm NW 5 7 - - - - 10 - - 16.8 1016.2 0.0
20/08:00pm NW 7 8 - - - - 10 - - 17.3 1016.0 0.0
20/07:30pm NW 6 7 - - - - 10 - - 17.7 1015.7 0.0
20/07:00pm NW 5 9 - - - - 10 - - 19.5 1015.6 0.0
20/06:30pm N 7 8 - - - - 10 - - 20.2 1015.1 0.0
20/06:00pm N 8 12 - - - - 10 - - 21.3 1014.9 0.0
20/05:30pm N 10 14 - - - - 10 - - 21.7 1014.8 0.0
20/05:00pm NNE 11 15 - - - - 10 - - 22.7 1014.5 0.0
20/04:30pm NNE 12 16 - - - - 10 - - 23.4 1014.4 0.0
20/04:00pm NNE 14 18 - - - - 10 - - 23.8 1014.4 0.0
20/03:30pm NNE 13 17 - - - - 10 - - 24.6 1014.6 0.0
20/03:00pm NNE 14 16 - - - - 10 - - 24.6 1014.7 0.0
20/02:30pm NNE 14 18 - - - - 10 - - 24.9 1014.8 0.0
20/02:00pm NNE 15 18 - - - - 10 Partly cloudy - 24.9 1015.2 0.0
20/01:30pm NNE 13 17 - - - - 10 Partly cloudy - 25.6 1015.6 0.0
20/01:00pm NE 15 17 - - - - 10 Partly cloudy - 25.3 1016.1 0.0
20/12:30pm NE 13 15 - - - - 10 Partly cloudy - 23.9 1016.5 0.0
20/12:00pm NE 12 15 - - - - 10 Cloudy - 24.2 1016.9 0.0
20/11:30am NE 10 13 - - - - 10 Partly cloudy - 25.1 1017.4 0.0
20/11:00am NE 10 13 - - - - 10 Partly cloudy - 24.3 1017.9 0.0
20/10:30am N 8 11 - - - - 10 Partly cloudy - 24.8 1018.3 0.0
20/10:00am N 6 9 - - - - 10 Partly cloudy - 23.3 1018.5 0.0
20/09:30am NW 4 7 - - - - 10 - - 23.5 1018.8 0.0
20/09:00am WNW 5 6 - - - - 10 - - 21.9 1019.1 0.0
20/08:30am WNW 4 5 - - - - 10 - - 19.6 1019.1 0.0
20/08:00am WNW 6 7 - - - - 10 - - 17.5 1018.9 0.0
20/07:30am WNW 5 6 - - - - 10 - - 15.9 1018.6 0.0
20/07:00am W 4 5 - - - - 10 - - 14.7 1018.3 0.0
20/06:30am WNW 5 5 - - - - 10 - - 13.3 1017.9 0.0
20/06:00am WNW 6 7 - - - - 10 - - 12.9 1017.6 0.0
20/05:30am WNW 4 5 - - - - 10 - - 13.2 1017.2 0.0
20/05:00am WNW 5 7 - - - - 10 - - 12.8 1017.0 0.0
20/04:30am NW 7 7 - - - - 10 - - 12.7 1016.6 0.0
20/04:00am W 5 6 - - - - 10 - - 13.3 1016.6 0.0
20/03:30am WSW 4 5 - - - - 10 - - 13.7 1016.6 0.0
20/03:00am WNW 5 5 - - - - 10 - - 13.6 1016.7 0.0
20/02:30am W 4 5 - - - - 10 - - 13.8 1016.9 0.0
20/02:00am W 4 5 - - - - 10 - - 14.0 1017.1 0.0
20/01:30am W 4 5 - - - - 10 - - 14.1 1017.3 0.0
20/01:00am W 4 5 - - - - 10 - - 14.1 1017.5 0.0
20/12:30am W 5 5 - - - - 10 - - 14.3 1017.7 0.0
20/12:00am W 4 5 - - - - 10 - - 14.6 1017.7 0.0
 
Date/Time
EST
Wind Sea
Height
m
Swell Vis
km
Cloud Weather Temp
°C
Press
MSL
hPa
Rain since
9am
mm
Dir  Spd
kts
Gust
kts
Height
m
Period
s
Dir
19/11:30pm W 5 5 - - - - 10 - - 14.8 1017.9 0.0
19/11:00pm W 4 5 - - - - 10 - - 14.9 1018.0 0.0
19/10:30pm W 4 4 - - - - 10 - - 15.4 1018.1 0.0
19/10:00pm W 4 5 - - - - 10 - - 14.9 1018.2 0.0
19/09:30pm W 4 5 - - - - 10 - - 15.9 1018.1 0.0
19/09:00pm W 4 5 - - - - 10 - - 16.3 1018.1 0.0
19/08:30pm W 4 5 - - - - 10 - - 16.4 1018.1 0.0
19/08:00pm W 5 6 - - - - 10 - - 17.0 1017.9 0.0
19/07:30pm S 4 6 - - - - 10 - - 19.1 1017.6 0.0
19/07:00pm ESE 6 8 - - - - 10 - - 21.3 1017.4 0.0
19/06:30pm ESE 6 9 - - - - 10 - - 21.6 1017.0 0.0
19/06:00pm ESE 7 10 - - - - 10 - - 21.7 1016.8 0.0
19/05:30pm ESE 7 10 - - - - 10 - - 21.7 1016.5 0.0
19/05:00pm SE 8 12 - - - - 10 - - 22.1 1016.4 0.0
19/04:30pm ESE 9 13 - - - - 10 - - 22.5 1016.3 0.0
19/04:00pm ESE 9 12 - - - - 10 Partly cloudy - 22.9 1016.2 0.0
19/03:30pm ESE 9 13 - - - - 10 - - 22.9 1016.0 0.0
19/03:00pm ESE 10 12 - - - - 10 - - 23.3 1015.8 0.0
19/02:30pm ESE 10 13 - - - - 10 - - 23.1 1015.8 0.0
19/02:00pm ESE 11 13 - - - - 10 - - 23.3 1016.0 0.0
19/01:30pm SE 11 14 - - - - 10 - - 23.2 1016.0 0.0
19/01:00pm SE 11 15 - - - - 10 - - 23.5 1016.5 0.0
19/12:30pm SE 12 15 - - - - 10 - - 23.1 1016.8 0.0
19/12:00pm SE 12 15 - - - - 10 - - 22.8 1017.1 0.0
19/11:30am SE 12 15 - - - - 10 - - 22.7 1017.5 0.0
19/11:00am SE 11 14 - - - - 10 - - 22.8 1018.0 0.0
19/10:30am S 7 11 - - - - 10 - - 22.5 1018.5 0.0
19/10:00am S 9 13 - - - - 10 - - 22.0 1018.5 0.0
19/09:30am S 10 13 - - - - 10 - - 21.3 1018.6 0.0
19/09:00am SSW 10 13 - - - - 10 - - 20.7 1018.7 0.0
19/08:30am SSW 10 14 - - - - 10 - - 20.4 1018.5 0.0
19/08:00am SSW 4 7 - - - - 10 - - 19.0 1018.4 0.0
19/07:30am WSW 5 7 - - - - 10 - - 17.5 1018.2 0.0
19/07:00am W 5 6 - - - - 10 - - 15.8 1017.9 0.0
19/06:30am WSW 6 7 - - - - 10 - - 14.4 1017.5 0.0
19/06:00am SW 6 7 - - - - 10 - - 14.4 1017.2 0.0
19/05:30am SW 5 7 - - - - 10 - - 14.6 1017.0 0.0
19/05:00am SW 6 8 - - - - 10 - - 15.1 1016.9 0.0
19/04:30am SW 6 7 - - - - 10 - - 15.5 1016.6 0.0
19/04:00am SW 7 9 - - - - 10 - - 16.1 1016.5 0.0
19/03:30am SW 7 9 - - - - 10 - - 16.3 1016.6 0.0
19/03:00am SW 6 7 - - - - 10 - - 15.5 1016.6 0.0
19/02:30am SW 6 6 - - - - 10 - - 15.6 1016.6 0.0
19/02:00am WSW 7 7 - - - - 10 - - 15.7 1016.6 0.0
19/01:55am WSW 7 8 - - - - 10 - - 15.8 1016.6 0.0
19/01:30am WSW 7 8 - - - - 1 - - 16.1 1016.8 0.0
19/01:19am WSW 7 9 - - - - 5 - - 16.1 1016.8 0.0
19/01:00am WSW 7 8 - - - - 10 - - 16.0 1017.0 0.0
19/12:30am WSW 7 9 - - - - 10 - - 16.2 1017.3 0.0
19/12:00am SW 7 8 - - - - 10 - - 17.1 1017.4 0.0
 
Date/Time
EST
Wind Sea
Height
m
Swell Vis
km
Cloud Weather Temp
°C
Press
MSL
hPa
Rain since
9am
mm
Dir  Spd
kts
Gust
kts
Height
m
Period
s
Dir
18/11:30pm SW 7 7 - - - - 10 - - 16.6 1017.6 0.0
18/11:00pm SW 7 8 - - - - 10 - - 16.7 1017.6 0.0
18/10:30pm SW 6 8 - - - - 10 Partly cloudy - 16.7 1017.8 0.0
18/10:00pm SW 5 7 - - - - 10 - - 16.6 1017.9 0.0
18/09:30pm SW 5 7 - - - - 10 - - 16.7 1017.9 0.0
18/09:00pm SW 7 8 - - - - 10 Cloudy - 17.3 1017.9 0.0
18/08:30pm WSW 2 8 - - - - 10 Partly cloudy - 17.4 1017.9 0.0
18/08:00pm WSW 7 9 - - - - 10 Partly cloudy - 18.1 1017.6 0.0
18/07:30pm SSE 8 11 - - - - 10 Partly cloudy - 20.8 1017.2 0.0
18/07:00pm SSE 7 11 - - - - 10 - - 21.0 1016.9 0.0
18/06:30pm SSE 8 11 - - - - 10 - - 21.2 1016.6 0.0
18/06:00pm SE 9 12 - - - - 10 - - 21.3 1016.3 0.0
18/05:30pm SE 8 11 - - - - 10 - - 21.4 1015.9 0.0
18/05:00pm SE 9 11 - - - - 10 - - 21.9 1015.8 0.0
18/04:30pm SE 9 13 - - - - 10 - - 22.2 1015.5 0.0
18/04:00pm SE 11 14 - - - - 10 - - 22.4 1015.4 0.0
18/03:30pm SSE 11 17 - - - - 10 - - 22.7 1015.3 0.0
18/03:00pm SE 12 17 - - - - 10 - - 22.5 1015.3 0.0
18/02:30pm SSE 13 16 - - - - 10 - - 22.7 1015.5 0.0
18/02:00pm SSE 12 16 - - - - 10 Partly cloudy - 23.2 1015.7 0.0
18/01:30pm SSE 10 14 - - - - 10 Partly cloudy - 22.2 1016.1 0.0
18/01:00pm SSE 11 14 - - - - 10 Partly cloudy - 22.0 1016.2 0.0

Other formats

Comma delimited format used in spreadsheet applications
http://www.bom.gov.au/fwo/IDQ60701/IDQ60701.94569.axf

JavaScript Object Notation format (JSON) in row-major order
http://www.bom.gov.au/fwo/IDQ60701/IDQ60701.94569.json

Data quality

Most of these data are generated automatically and are frequently updated. Quality checks on data are not normally performed. It is possible for incorrect values to appear. Refer to information at About Latest Weather Observations and please check the disclaimer before using these data.